createdAt,value
2022-07-28T03:49:08.053Z,3.78
2022-07-28T03:52:10.570Z,3.62
2022-07-28T03:55:14.095Z,3.72
2022-07-28T03:58:28.420Z,3.50
2022-07-28T04:01:31.030Z,3.55
2022-07-28T04:04:33.538Z,3.65
2022-07-28T04:07:35.611Z,3.33
2022-07-28T04:10:37.955Z,3.58
2022-07-28T04:13:40.207Z,3.35
2022-07-28T04:16:42.654Z,3.50
2022-07-28T04:19:44.785Z,3.35
2022-07-28T04:22:48.516Z,4.10
2022-07-28T04:25:50.663Z,3.78
2022-07-28T04:28:52.982Z,3.45
2022-07-28T04:31:55.045Z,3.12
2022-07-28T04:34:59.063Z,3.80
2022-07-28T04:38:01.494Z,3.78
2022-07-28T04:41:04.496Z,4.05
2022-07-28T04:44:06.589Z,3.87
2022-07-28T04:47:09.331Z,3.83
2022-07-28T04:50:15.116Z,3.33
2022-07-28T04:53:18.560Z,3.80
2022-07-28T04:56:20.863Z,3.20
2022-07-28T04:59:23.234Z,3.70
2022-07-28T05:02:27.377Z,3.37
2022-07-28T05:05:29.797Z,3.85
2022-07-28T05:08:31.921Z,4.28
2022-07-28T05:11:34.282Z,3.92
2022-07-28T05:14:36.426Z,3.47
2022-07-28T05:17:38.805Z,3.60
2022-07-28T05:20:40.874Z,3.33
2022-07-28T05:23:47.350Z,3.70
2022-07-28T05:26:49.730Z,3.65
2022-07-28T05:29:52.062Z,4.07
2022-07-28T05:32:54.136Z,4.82
2022-07-28T05:35:59.792Z,4.37
2022-07-28T05:39:01.956Z,4.35
2022-07-28T05:42:04.449Z,4.78
2022-07-28T05:45:15.706Z,5.25
2022-07-28T05:48:22.445Z,4.70
2022-07-28T05:51:24.578Z,4.80
2022-07-28T05:54:26.952Z,5.20
2022-07-28T05:57:29.058Z,5.40
2022-07-28T06:00:34.694Z,6.40
2022-07-28T06:03:41.822Z,4.60
2022-07-28T06:06:44.505Z,4.90
2022-07-28T06:09:46.833Z,6.00
2022-07-28T06:12:52.765Z,4.75
2022-07-28T06:15:55.150Z,5.12
2022-07-28T06:18:57.264Z,5.72
2022-07-28T06:21:59.607Z,5.10
2022-07-28T06:25:01.667Z,5.28
2022-07-28T06:28:04.629Z,5.05
2022-07-28T06:31:06.756Z,5.18
2022-07-28T06:34:09.122Z,4.70
2022-07-28T06:37:11.191Z,5.60
2022-07-28T06:40:14.523Z,5.12
2022-07-28T06:43:16.600Z,5.43
2022-07-28T06:46:19.457Z,4.55
2022-07-28T06:49:21.856Z,5.25
2022-07-28T06:52:24.326Z,4.47
2022-07-28T06:55:28.496Z,5.07
2022-07-28T06:58:37.621Z,4.70
2022-07-28T07:01:39.693Z,5.18
2022-07-28T07:04:42.436Z,4.97
2022-07-28T07:07:44.643Z,5.25
2022-07-28T07:10:46.986Z,5.03
2022-07-28T07:13:49.259Z,5.40
2022-07-28T07:16:51.599Z,4.93
2022-07-28T07:19:53.708Z,5.00
2022-07-28T07:22:56.032Z,4.93
2022-07-28T07:25:58.743Z,6.12
2022-07-28T07:29:01.077Z,4.65
2022-07-28T07:32:08.344Z,4.62
2022-07-28T07:35:12.965Z,4.93
2022-07-28T07:38:15.095Z,4.70
2022-07-28T07:41:18.750Z,5.00
2022-07-28T07:44:20.959Z,4.87
2022-07-28T07:47:23.426Z,5.10
2022-07-28T07:50:25.494Z,4.70
2022-07-28T07:53:27.854Z,4.90
2022-07-28T07:56:29.934Z,5.35
2022-07-28T07:59:32.282Z,4.57
2022-07-28T08:02:34.433Z,4.82
2022-07-28T08:05:36.811Z,4.78
2022-07-28T08:08:43.831Z,5.40
2022-07-28T08:11:50.522Z,11.10
2022-07-28T08:14:53.611Z,7.82
2022-07-28T08:17:56.000Z,4.93
2022-07-28T08:20:58.062Z,5.80
2022-07-28T08:24:00.469Z,7.28
2022-07-28T08:27:03.471Z,5.00
2022-07-28T08:30:06.243Z,5.57
2022-07-28T08:33:08.331Z,5.57
2022-07-28T08:36:10.676Z,5.95
2022-07-28T08:39:12.772Z,5.68
2022-07-28T08:42:20.064Z,5.70
2022-07-28T08:45:24.603Z,5.20
2022-07-28T08:48:35.051Z,5.10
2022-07-28T08:51:39.240Z,4.62
2022-07-28T08:54:46.055Z,5.50
2022-07-28T08:57:49.420Z,4.87
2022-07-28T09:00:52.067Z,4.78
2022-07-28T09:03:54.868Z,5.68
2022-07-28T09:06:57.217Z,4.90
2022-07-28T09:10:02.499Z,5.30
2022-07-28T09:13:05.550Z,6.37
2022-07-28T09:16:07.759Z,4.53
2022-07-28T09:19:10.155Z,4.53
2022-07-28T09:22:13.270Z,4.25
2022-07-28T09:25:19.002Z,4.80
2022-07-28T09:28:21.098Z,4.60
2022-07-28T09:31:25.885Z,4.43
2022-07-28T09:34:28.406Z,5.10
2022-07-28T09:37:31.411Z,4.65
2022-07-28T09:40:33.500Z,4.47
2022-07-28T09:43:42.458Z,4.12
2022-07-28T09:46:44.771Z,4.70
2022-07-28T09:49:47.405Z,3.95
2022-07-28T09:52:49.535Z,3.92
2022-07-28T09:56:00.101Z,3.67
2022-07-28T09:59:03.631Z,4.00
2022-07-28T10:02:06.894Z,3.90
2022-07-28T10:05:11.675Z,3.90
2022-07-28T10:08:13.738Z,4.28
2022-07-28T10:11:18.411Z,3.75
2022-07-28T10:14:31.920Z,4.17
2022-07-28T10:17:34.382Z,4.18
2022-07-28T10:20:37.001Z,4.10
2022-07-28T10:23:39.960Z,3.80
2022-07-28T10:26:46.934Z,3.87
2022-07-28T10:29:56.739Z,3.47
2022-07-28T10:32:59.751Z,3.55
2022-07-28T10:36:05.298Z,3.65
2022-07-28T10:42:15.500Z,4.10
2022-07-28T10:45:17.597Z,3.92
2022-07-28T10:48:21.629Z,3.97
2022-07-28T10:51:28.309Z,4.07
2022-07-28T10:54:38.582Z,4.32
2022-07-28T10:58:02.038Z,4.35
2022-07-28T11:01:48.629Z,4.12
2022-07-28T11:04:52.886Z,4.00
2022-07-28T11:07:57.154Z,4.35
2022-07-28T11:11:07.782Z,4.10
2022-07-28T11:14:30.757Z,4.53
2022-07-28T11:17:33.545Z,4.45
2022-07-28T11:21:08.636Z,4.47
2022-07-28T11:24:10.834Z,4.75
2022-07-28T11:27:15.399Z,4.60
2022-07-28T11:30:32.780Z,4.53
2022-07-28T11:33:54.461Z,4.35
2022-07-28T11:37:07.714Z,4.15
2022-07-28T11:40:39.586Z,4.10
2022-07-28T11:43:41.977Z,3.75
2022-07-28T11:46:44.609Z,4.03
2022-07-28T11:50:16.843Z,3.85
2022-07-28T11:53:19.922Z,4.15
2022-07-28T11:56:27.323Z,4.05
2022-07-28T11:59:41.390Z,3.83
2022-07-28T12:02:43.636Z,4.12
2022-07-28T12:05:56.987Z,4.45
2022-07-28T12:09:00.850Z,4.47
2022-07-28T12:12:03.842Z,4.12
2022-07-28T12:15:07.351Z,4.32
2022-07-28T12:18:11.351Z,4.30
2022-07-28T12:21:13.436Z,4.22
2022-07-28T12:24:25.950Z,5.05
2022-07-28T12:27:29.348Z,4.45
2022-07-28T12:30:34.330Z,4.30
2022-07-28T12:33:37.085Z,4.47
2022-07-28T12:36:39.434Z,4.75
2022-07-28T12:39:42.508Z,4.55
2022-07-28T12:42:46.733Z,4.07
2022-07-28T12:45:55.056Z,4.57
2022-07-28T12:48:59.041Z,4.55
2022-07-28T12:52:17.959Z,4.95
2022-07-28T12:55:32.968Z,5.07
2022-07-28T12:58:36.113Z,4.12
2022-07-28T13:01:50.616Z,4.60
2022-07-28T13:04:52.960Z,3.85
2022-07-28T13:08:03.667Z,4.32
2022-07-28T13:11:17.377Z,3.95
2022-07-28T13:14:44.356Z,4.70
2022-07-28T13:17:53.574Z,4.35
2022-07-28T13:20:55.917Z,4.43
2022-07-28T13:23:57.986Z,4.90
2022-07-28T13:27:01.922Z,4.22
2022-07-28T13:30:05.505Z,4.28
2022-07-28T13:33:13.414Z,4.40
2022-07-28T13:36:15.902Z,4.55
2022-07-28T13:39:18.352Z,6.12
2022-07-28T13:42:20.470Z,4.50
2022-07-28T13:45:29.978Z,4.62
2022-07-28T13:48:32.898Z,4.07
2022-07-28T13:51:36.617Z,4.18
2022-07-28T13:54:38.695Z,4.43
2022-07-28T13:57:43.128Z,4.18
2022-07-28T14:00:45.482Z,3.90
2022-07-28T14:03:55.740Z,4.07
2022-07-28T14:07:00.443Z,4.20
2022-07-28T14:10:02.814Z,4.87
2022-07-28T14:13:04.960Z,4.28
2022-07-28T14:16:14.134Z,4.50
2022-07-28T14:19:23.504Z,4.10
2022-07-28T14:22:39.699Z,4.05
2022-07-28T14:25:49.190Z,4.55
2022-07-28T14:28:52.038Z,4.70
2022-07-28T14:31:55.811Z,5.50
2022-07-28T14:34:58.329Z,4.95
2022-07-28T14:38:51.147Z,4.50
2022-07-28T14:41:23.572Z,4.60
2022-07-28T14:44:26.643Z,4.10
2022-07-28T14:47:44.267Z,4.55
2022-07-28T14:50:47.357Z,4.40
2022-07-28T14:53:52.172Z,4.28
2022-07-28T14:56:54.780Z,4.68
2022-07-28T14:59:57.121Z,4.30
